sensor_id;sensor_type;location;lat;lon;timestamp;P1;durP1;ratioP1;P2;durP2;ratioP2
61741;SDS011;47650;49.848;9.620;2023-09-18T00:00:56;14.48;;;8.43;;
61741;SDS011;47650;49.848;9.620;2023-09-18T00:03:24;14.68;;;9.52;;
61741;SDS011;47650;49.848;9.620;2023-09-18T00:05:55;12.90;;;8.65;;
61741;SDS011;47650;49.848;9.620;2023-09-18T00:08:21;13.15;;;8.52;;
61741;SDS011;47650;49.848;9.620;2023-09-18T00:10:50;17.10;;;8.65;;
61741;SDS011;47650;49.848;9.620;2023-09-18T00:13:18;12.60;;;8.13;;
61741;SDS011;47650;49.848;9.620;2023-09-18T00:15:44;13.57;;;8.93;;
61741;SDS011;47650;49.848;9.620;2023-09-18T00:18:12;13.43;;;9.40;;
61741;SDS011;47650;49.848;9.620;2023-09-18T00:20:39;12.05;;;8.70;;
61741;SDS011;47650;49.848;9.620;2023-09-18T00:23:06;10.73;;;8.70;;
61741;SDS011;47650;49.848;9.620;2023-09-18T00:25:32;13.32;;;9.57;;
61741;SDS011;47650;49.848;9.620;2023-09-18T00:27:59;10.25;;;8.82;;
61741;SDS011;47650;49.848;9.620;2023-09-18T00:30:24;11.50;;;8.60;;
61741;SDS011;47650;49.848;9.620;2023-09-18T00:32:50;12.93;;;9.50;;
61741;SDS011;47650;49.848;9.620;2023-09-18T00:35:15;14.23;;;9.35;;
61741;SDS011;47650;49.848;9.620;2023-09-18T00:37:41;17.13;;;9.77;;
61741;SDS011;47650;49.848;9.620;2023-09-18T00:40:09;10.85;;;8.60;;
61741;SDS011;47650;49.848;9.620;2023-09-18T00:42:36;13.85;;;10.25;;
61741;SDS011;47650;49.848;9.620;2023-09-18T00:45:03;14.43;;;9.43;;
61741;SDS011;47650;49.848;9.620;2023-09-18T00:47:29;12.93;;;10.02;;
61741;SDS011;47650;49.848;9.620;2023-09-18T00:49:54;13.93;;;10.25;;
61741;SDS011;47650;49.848;9.620;2023-09-18T00:52:21;14.25;;;10.93;;
61741;SDS011;47650;49.848;9.620;2023-09-18T00:54:49;13.00;;;9.88;;
61741;SDS011;47650;49.848;9.620;2023-09-18T00:57:17;15.02;;;11.15;;
61741;SDS011;47650;49.848;9.620;2023-09-18T00:59:43;15.30;;;10.40;;
61741;SDS011;47650;49.848;9.620;2023-09-18T01:02:08;11.50;;;9.52;;
61741;SDS011;47650;49.848;9.620;2023-09-18T01:04:36;13.10;;;8.75;;
61741;SDS011;47650;49.848;9.620;2023-09-18T01:07:04;14.98;;;9.27;;
61741;SDS011;47650;49.848;9.620;2023-09-18T01:09:31;13.55;;;10.35;;
61741;SDS011;47650;49.848;9.620;2023-09-18T01:15:06;16.75;;;10.57;;
61741;SDS011;47650;49.848;9.620;2023-09-18T01:17:41;17.38;;;10.82;;
61741;SDS011;47650;49.848;9.620;2023-09-18T01:20:11;14.30;;;10.07;;
61741;SDS011;47650;49.848;9.620;2023-09-18T01:22:38;12.05;;;8.98;;
61741;SDS011;47650;49.848;9.620;2023-09-18T01:25:06;12.02;;;9.77;;
61741;SDS011;47650;49.848;9.620;2023-09-18T01:27:32;11.50;;;9.02;;
61741;SDS011;47650;49.848;9.620;2023-09-18T01:29:59;12.88;;;7.93;;
61741;SDS011;47650;49.848;9.620;2023-09-18T01:32:26;12.10;;;8.27;;
61741;SDS011;47650;49.848;9.620;2023-09-18T01:35:08;11.90;;;9.27;;
61741;SDS011;47650;49.848;9.620;2023-09-18T01:37:36;12.38;;;8.73;;
61741;SDS011;47650;49.848;9.620;2023-09-18T01:40:03;11.35;;;9.43;;
61741;SDS011;47650;49.848;9.620;2023-09-18T01:42:31;12.88;;;8.95;;
61741;SDS011;47650;49.848;9.620;2023-09-18T01:44:59;10.88;;;8.45;;
61741;SDS011;47650;49.848;9.620;2023-09-18T01:47:26;12.35;;;9.38;;
61741;SDS011;47650;49.848;9.620;2023-09-18T01:50:04;18.08;;;9.77;;
61741;SDS011;47650;49.848;9.620;2023-09-18T01:52:31;14.25;;;10.88;;
61741;SDS011;47650;49.848;9.620;2023-09-18T01:54:57;12.88;;;10.15;;
61741;SDS011;47650;49.848;9.620;2023-09-18T01:57:24;14.23;;;10.43;;
61741;SDS011;47650;49.848;9.620;2023-09-18T01:59:55;14.93;;;11.05;;
61741;SDS011;47650;49.848;9.620;2023-09-18T02:02:27;14.43;;;10.35;;
61741;SDS011;47650;49.848;9.620;2023-09-18T02:04:54;12.52;;;8.90;;
61741;SDS011;47650;49.848;9.620;2023-09-18T02:07:21;12.57;;;9.07;;
61741;SDS011;47650;49.848;9.620;2023-09-18T02:09:57;9.90;;;7.80;;
61741;SDS011;47650;49.848;9.620;2023-09-18T02:12:22;13.48;;;9.02;;
61741;SDS011;47650;49.848;9.620;2023-09-18T02:14:55;11.40;;;8.32;;
61741;SDS011;47650;49.848;9.620;2023-09-18T02:17:23;16.77;;;8.07;;
61741;SDS011;47650;49.848;9.620;2023-09-18T02:19:50;13.98;;;7.85;;
61741;SDS011;47650;49.848;9.620;2023-09-18T02:22:17;10.07;;;8.10;;
61741;SDS011;47650;49.848;9.620;2023-09-18T02:24:42;10.40;;;7.93;;
61741;SDS011;47650;49.848;9.620;2023-09-18T02:27:08;9.45;;;6.97;;
61741;SDS011;47650;49.848;9.620;2023-09-18T02:29:35;9.70;;;7.82;;
61741;SDS011;47650;49.848;9.620;2023-09-18T02:32:04;10.88;;;8.30;;
61741;SDS011;47650;49.848;9.620;2023-09-18T02:34:44;11.30;;;7.60;;
61741;SDS011;47650;49.848;9.620;2023-09-18T02:37:11;10.77;;;7.47;;
61741;SDS011;47650;49.848;9.620;2023-09-18T02:39:37;12.50;;;8.25;;
61741;SDS011;47650;49.848;9.620;2023-09-18T02:42:06;11.40;;;8.18;;
61741;SDS011;47650;49.848;9.620;2023-09-18T02:44:31;12.68;;;8.70;;
61741;SDS011;47650;49.848;9.620;2023-09-18T02:46:57;10.52;;;7.85;;
61741;SDS011;47650;49.848;9.620;2023-09-18T02:49:24;8.98;;;7.60;;
61741;SDS011;47650;49.848;9.620;2023-09-18T02:51:51;11.35;;;7.82;;
61741;SDS011;47650;49.848;9.620;2023-09-18T02:54:16;9.00;;;7.20;;
61741;SDS011;47650;49.848;9.620;2023-09-18T02:56:43;15.65;;;8.07;;
61741;SDS011;47650;49.848;9.620;2023-09-18T02:59:08;10.48;;;6.63;;
61741;SDS011;47650;49.848;9.620;2023-09-18T03:01:34;12.35;;;7.80;;
61741;SDS011;47650;49.848;9.620;2023-09-18T03:04:00;17.88;;;9.23;;
61741;SDS011;47650;49.848;9.620;2023-09-18T03:06:29;67.55;;;14.38;;
61741;SDS011;47650;49.848;9.620;2023-09-18T03:08:55;16.40;;;11.20;;
61741;SDS011;47650;49.848;9.620;2023-09-18T03:11:20;17.40;;;13.77;;
61741;SDS011;47650;49.848;9.620;2023-09-18T03:13:47;31.00;;;21.92;;
61741;SDS011;47650;49.848;9.620;2023-09-18T03:16:14;24.67;;;18.30;;
61741;SDS011;47650;49.848;9.620;2023-09-18T03:21:07;32.78;;;21.85;;
61741;SDS011;47650;49.848;9.620;2023-09-18T03:23:34;27.88;;;20.13;;
61741;SDS011;47650;49.848;9.620;2023-09-18T03:26:01;37.90;;;23.20;;
61741;SDS011;47650;49.848;9.620;2023-09-18T03:28:30;29.35;;;21.17;;
61741;SDS011;47650;49.848;9.620;2023-09-18T03:30:57;32.00;;;25.70;;
61741;SDS011;47650;49.848;9.620;2023-09-18T03:33:31;41.40;;;27.38;;
61741;SDS011;47650;49.848;9.620;2023-09-18T03:35:57;31.35;;;20.55;;
61741;SDS011;47650;49.848;9.620;2023-09-18T03:38:23;27.60;;;21.23;;
61741;SDS011;47650;49.848;9.620;2023-09-18T03:40:51;29.70;;;23.17;;
61741;SDS011;47650;49.848;9.620;2023-09-18T03:43:32;25.00;;;18.25;;
61741;SDS011;47650;49.848;9.620;2023-09-18T03:46:04;27.65;;;22.60;;
61741;SDS011;47650;49.848;9.620;2023-09-18T03:48:30;29.85;;;23.60;;
61741;SDS011;47650;49.848;9.620;2023-09-18T03:51:07;30.77;;;21.70;;
61741;SDS011;47650;49.848;9.620;2023-09-18T03:53:33;20.38;;;18.00;;
61741;SDS011;47650;49.848;9.620;2023-09-18T03:56:00;26.52;;;21.67;;
61741;SDS011;47650;49.848;9.620;2023-09-18T03:58:26;32.05;;;23.73;;
61741;SDS011;47650;49.848;9.620;2023-09-18T04:00:55;32.30;;;25.92;;
61741;SDS011;47650;49.848;9.620;2023-09-18T04:03:21;32.45;;;21.15;;
61741;SDS011;47650;49.848;9.620;2023-09-18T04:05:48;35.78;;;25.70;;
61741;SDS011;47650;49.848;9.620;2023-09-18T04:08:14;33.08;;;27.23;;
61741;SDS011;47650;49.848;9.620;2023-09-18T04:10:39;32.22;;;24.92;;
61741;SDS011;47650;49.848;9.620;2023-09-18T04:13:08;30.80;;;23.67;;
61741;SDS011;47650;49.848;9.620;2023-09-18T04:15:34;41.67;;;30.60;;
61741;SDS011;47650;49.848;9.620;2023-09-18T04:18:04;69.70;;;42.08;;
61741;SDS011;47650;49.848;9.620;2023-09-18T04:20:30;41.85;;;32.88;;
61741;SDS011;47650;49.848;9.620;2023-09-18T04:25:49;43.95;;;30.40;;
61741;SDS011;47650;49.848;9.620;2023-09-18T04:28:15;40.42;;;28.60;;
61741;SDS011;47650;49.848;9.620;2023-09-18T04:30:45;25.33;;;20.48;;
61741;SDS011;47650;49.848;9.620;2023-09-18T04:33:12;41.75;;;29.13;;
61741;SDS011;47650;49.848;9.620;2023-09-18T04:38:06;38.72;;;31.70;;
61741;SDS011;47650;49.848;9.620;2023-09-18T04:40:33;74.43;;;45.72;;
61741;SDS011;47650;49.848;9.620;2023-09-18T04:43:00;31.52;;;24.25;;
61741;SDS011;47650;49.848;9.620;2023-09-18T04:45:29;30.55;;;23.10;;
61741;SDS011;47650;49.848;9.620;2023-09-18T04:47:56;27.05;;;23.05;;
61741;SDS011;47650;49.848;9.620;2023-09-18T04:50:22;33.13;;;26.67;;
61741;SDS011;47650;49.848;9.620;2023-09-18T04:52:48;29.30;;;23.63;;
61741;SDS011;47650;49.848;9.620;2023-09-18T04:55:15;33.22;;;26.88;;
61741;SDS011;47650;49.848;9.620;2023-09-18T04:57:41;29.17;;;24.77;;
61741;SDS011;47650;49.848;9.620;2023-09-18T05:00:07;34.90;;;26.98;;
61741;SDS011;47650;49.848;9.620;2023-09-18T05:02:37;24.27;;;20.05;;
61741;SDS011;47650;49.848;9.620;2023-09-18T05:05:03;24.60;;;21.90;;
61741;SDS011;47650;49.848;9.620;2023-09-18T05:07:29;27.60;;;22.35;;
61741;SDS011;47650;49.848;9.620;2023-09-18T05:09:57;33.80;;;25.83;;
61741;SDS011;47650;49.848;9.620;2023-09-18T05:12:23;27.60;;;21.38;;
61741;SDS011;47650;49.848;9.620;2023-09-18T05:14:48;22.75;;;19.90;;
61741;SDS011;47650;49.848;9.620;2023-09-18T05:17:17;21.95;;;19.55;;
61741;SDS011;47650;49.848;9.620;2023-09-18T05:19:43;28.27;;;23.40;;
61741;SDS011;47650;49.848;9.620;2023-09-18T05:22:10;22.42;;;19.52;;
61741;SDS011;47650;49.848;9.620;2023-09-18T05:24:37;28.13;;;24.38;;
61741;SDS011;47650;49.848;9.620;2023-09-18T05:27:04;22.30;;;18.17;;
61741;SDS011;47650;49.848;9.620;2023-09-18T05:29:33;27.67;;;22.23;;
61741;SDS011;47650;49.848;9.620;2023-09-18T05:32:01;24.50;;;19.92;;
61741;SDS011;47650;49.848;9.620;2023-09-18T05:34:26;18.50;;;16.58;;
61741;SDS011;47650;49.848;9.620;2023-09-18T05:36:56;27.13;;;20.90;;
61741;SDS011;47650;49.848;9.620;2023-09-18T05:39:21;305.75;;;52.78;;
61741;SDS011;47650;49.848;9.620;2023-09-18T05:41:46;117.65;;;44.60;;
61741;SDS011;47650;49.848;9.620;2023-09-18T05:44:12;89.28;;;45.08;;
61741;SDS011;47650;49.848;9.620;2023-09-18T05:46:37;54.63;;;36.88;;
61741;SDS011;47650;49.848;9.620;2023-09-18T05:49:03;54.20;;;34.13;;
61741;SDS011;47650;49.848;9.620;2023-09-18T05:51:30;37.08;;;28.67;;
61741;SDS011;47650;49.848;9.620;2023-09-18T05:53:58;42.97;;;30.60;;
61741;SDS011;47650;49.848;9.620;2023-09-18T05:56:25;34.08;;;27.83;;
61741;SDS011;47650;49.848;9.620;2023-09-18T05:58:50;42.15;;;30.42;;
61741;SDS011;47650;49.848;9.620;2023-09-18T06:01:17;41.95;;;28.33;;
61741;SDS011;47650;49.848;9.620;2023-09-18T06:03:44;44.92;;;32.00;;
61741;SDS011;47650;49.848;9.620;2023-09-18T06:06:10;64.75;;;41.42;;
61741;SDS011;47650;49.848;9.620;2023-09-18T06:08:35;43.83;;;31.42;;
61741;SDS011;47650;49.848;9.620;2023-09-18T06:11:01;39.15;;;27.02;;
61741;SDS011;47650;49.848;9.620;2023-09-18T06:13:27;52.20;;;34.92;;
61741;SDS011;47650;49.848;9.620;2023-09-18T06:15:53;49.50;;;31.67;;
61741;SDS011;47650;49.848;9.620;2023-09-18T06:18:21;54.78;;;36.28;;
61741;SDS011;47650;49.848;9.620;2023-09-18T06:20:49;53.85;;;35.15;;
61741;SDS011;47650;49.848;9.620;2023-09-18T06:23:14;71.25;;;45.20;;
61741;SDS011;47650;49.848;9.620;2023-09-18T06:25:40;54.05;;;37.58;;
61741;SDS011;47650;49.848;9.620;2023-09-18T06:28:07;40.75;;;30.63;;
61741;SDS011;47650;49.848;9.620;2023-09-18T06:30:34;46.55;;;32.30;;
61741;SDS011;47650;49.848;9.620;2023-09-18T06:33:01;58.00;;;40.45;;
61741;SDS011;47650;49.848;9.620;2023-09-18T06:35:27;75.38;;;49.83;;
61741;SDS011;47650;49.848;9.620;2023-09-18T06:37:53;62.85;;;46.50;;
61741;SDS011;47650;49.848;9.620;2023-09-18T06:40:24;41.55;;;33.35;;
61741;SDS011;47650;49.848;9.620;2023-09-18T06:42:50;72.55;;;45.95;;
61741;SDS011;47650;49.848;9.620;2023-09-18T06:45:16;82.82;;;53.83;;
61741;SDS011;47650;49.848;9.620;2023-09-18T06:47:42;54.58;;;41.90;;
61741;SDS011;47650;49.848;9.620;2023-09-18T06:50:07;48.20;;;36.38;;
61741;SDS011;47650;49.848;9.620;2023-09-18T06:52:36;55.63;;;40.75;;
61741;SDS011;47650;49.848;9.620;2023-09-18T06:55:03;45.38;;;34.25;;
61741;SDS011;47650;49.848;9.620;2023-09-18T06:57:30;24.83;;;22.25;;
61741;SDS011;47650;49.848;9.620;2023-09-18T06:59:55;44.58;;;34.60;;
61741;SDS011;47650;49.848;9.620;2023-09-18T07:02:23;34.30;;;29.15;;
61741;SDS011;47650;49.848;9.620;2023-09-18T07:04:50;49.13;;;35.28;;
61741;SDS011;47650;49.848;9.620;2023-09-18T07:07:16;39.45;;;31.38;;
61741;SDS011;47650;49.848;9.620;2023-09-18T07:09:43;44.90;;;34.50;;
61741;SDS011;47650;49.848;9.620;2023-09-18T07:12:17;61.47;;;43.42;;
61741;SDS011;47650;49.848;9.620;2023-09-18T07:14:46;52.70;;;37.83;;
61741;SDS011;47650;49.848;9.620;2023-09-18T07:17:12;50.60;;;40.15;;
61741;SDS011;47650;49.848;9.620;2023-09-18T07:19:38;43.28;;;34.60;;
61741;SDS011;47650;49.848;9.620;2023-09-18T07:22:06;27.48;;;24.45;;
61741;SDS011;47650;49.848;9.620;2023-09-18T07:24:32;26.50;;;22.15;;
61741;SDS011;47650;49.848;9.620;2023-09-18T07:26:58;24.20;;;21.60;;
61741;SDS011;47650;49.848;9.620;2023-09-18T07:29:23;26.85;;;22.58;;
61741;SDS011;47650;49.848;9.620;2023-09-18T07:31:50;34.17;;;27.73;;
61741;SDS011;47650;49.848;9.620;2023-09-18T07:34:16;44.42;;;32.05;;
61741;SDS011;47650;49.848;9.620;2023-09-18T07:36:43;40.17;;;31.35;;
61741;SDS011;47650;49.848;9.620;2023-09-18T07:39:12;34.75;;;27.85;;
61741;SDS011;47650;49.848;9.620;2023-09-18T07:41:37;33.35;;;29.63;;
61741;SDS011;47650;49.848;9.620;2023-09-18T07:44:05;29.55;;;25.92;;
61741;SDS011;47650;49.848;9.620;2023-09-18T07:46:30;23.23;;;19.67;;
61741;SDS011;47650;49.848;9.620;2023-09-18T07:48:56;17.25;;;15.45;;
61741;SDS011;47650;49.848;9.620;2023-09-18T07:51:24;20.00;;;17.65;;
61741;SDS011;47650;49.848;9.620;2023-09-18T07:53:50;21.45;;;16.42;;
61741;SDS011;47650;49.848;9.620;2023-09-18T07:56:18;14.32;;;13.02;;
61741;SDS011;47650;49.848;9.620;2023-09-18T07:58:45;14.27;;;11.85;;
61741;SDS011;47650;49.848;9.620;2023-09-18T08:01:12;13.70;;;10.60;;
61741;SDS011;47650;49.848;9.620;2023-09-18T08:03:37;11.13;;;9.23;;
61741;SDS011;47650;49.848;9.620;2023-09-18T08:06:03;12.85;;;11.57;;
61741;SDS011;47650;49.848;9.620;2023-09-18T08:08:30;13.98;;;11.07;;
61741;SDS011;47650;49.848;9.620;2023-09-18T08:10:57;9.80;;;7.00;;
61741;SDS011;47650;49.848;9.620;2023-09-18T08:13:27;10.85;;;5.80;;
61741;SDS011;47650;49.848;9.620;2023-09-18T08:15:58;10.20;;;5.60;;
61741;SDS011;47650;49.848;9.620;2023-09-18T08:18:23;7.32;;;4.68;;
61741;SDS011;47650;49.848;9.620;2023-09-18T08:20:51;7.90;;;4.53;;
61741;SDS011;47650;49.848;9.620;2023-09-18T08:23:18;12.70;;;5.05;;
61741;SDS011;47650;49.848;9.620;2023-09-18T08:25:44;12.52;;;4.50;;
61741;SDS011;47650;49.848;9.620;2023-09-18T08:28:13;6.70;;;4.10;;
61741;SDS011;47650;49.848;9.620;2023-09-18T08:30:42;8.50;;;4.22;;
61741;SDS011;47650;49.848;9.620;2023-09-18T08:33:12;7.80;;;3.85;;
61741;SDS011;47650;49.848;9.620;2023-09-18T08:35:39;8.68;;;3.95;;
61741;SDS011;47650;49.848;9.620;2023-09-18T08:38:05;9.38;;;4.28;;
61741;SDS011;47650;49.848;9.620;2023-09-18T08:40:31;8.02;;;4.10;;
61741;SDS011;47650;49.848;9.620;2023-09-18T08:42:58;7.65;;;3.88;;
61741;SDS011;47650;49.848;9.620;2023-09-18T08:45:40;8.93;;;3.67;;
61741;SDS011;47650;49.848;9.620;2023-09-18T08:48:26;11.38;;;4.15;;
61741;SDS011;47650;49.848;9.620;2023-09-18T08:51:05;11.07;;;4.68;;
61741;SDS011;47650;49.848;9.620;2023-09-18T08:53:32;6.07;;;3.85;;
61741;SDS011;47650;49.848;9.620;2023-09-18T08:55:59;6.20;;;3.28;;
61741;SDS011;47650;49.848;9.620;2023-09-18T08:58:28;13.82;;;4.25;;
61741;SDS011;47650;49.848;9.620;2023-09-18T09:01:01;10.52;;;4.15;;
61741;SDS011;47650;49.848;9.620;2023-09-18T09:03:28;8.20;;;4.07;;
61741;SDS011;47650;49.848;9.620;2023-09-18T09:05:54;8.65;;;3.83;;
61741;SDS011;47650;49.848;9.620;2023-09-18T09:08:19;9.20;;;4.28;;
61741;SDS011;47650;49.848;9.620;2023-09-18T09:10:48;9.48;;;4.28;;
61741;SDS011;47650;49.848;9.620;2023-09-18T09:13:15;10.85;;;4.53;;
61741;SDS011;47650;49.848;9.620;2023-09-18T09:15:46;10.30;;;4.40;;
61741;SDS011;47650;49.848;9.620;2023-09-18T09:18:14;9.45;;;4.05;;
61741;SDS011;47650;49.848;9.620;2023-09-18T09:20:40;10.10;;;4.75;;
61741;SDS011;47650;49.848;9.620;2023-09-18T09:23:07;10.55;;;3.88;;
61741;SDS011;47650;49.848;9.620;2023-09-18T09:25:41;7.90;;;3.40;;
61741;SDS011;47650;49.848;9.620;2023-09-18T09:28:08;5.30;;;2.80;;
61741;SDS011;47650;49.848;9.620;2023-09-18T09:30:35;10.55;;;3.17;;
61741;SDS011;47650;49.848;9.620;2023-09-18T09:33:03;10.00;;;3.22;;
61741;SDS011;47650;49.848;9.620;2023-09-18T09:35:33;6.32;;;3.00;;
61741;SDS011;47650;49.848;9.620;2023-09-18T09:38:11;5.97;;;2.65;;
61741;SDS011;47650;49.848;9.620;2023-09-18T09:40:43;8.35;;;2.88;;
61741;SDS011;47650;49.848;9.620;2023-09-18T09:43:30;7.03;;;2.97;;
61741;SDS011;47650;49.848;9.620;2023-09-18T09:46:02;6.60;;;2.80;;
61741;SDS011;47650;49.848;9.620;2023-09-18T09:48:28;7.38;;;2.60;;
61741;SDS011;47650;49.848;9.620;2023-09-18T09:50:58;5.82;;;2.50;;
61741;SDS011;47650;49.848;9.620;2023-09-18T09:53:44;5.13;;;2.17;;
61741;SDS011;47650;49.848;9.620;2023-09-18T09:56:16;6.35;;;2.30;;
61741;SDS011;47650;49.848;9.620;2023-09-18T09:59:04;5.68;;;2.35;;
61741;SDS011;47650;49.848;9.620;2023-09-18T10:01:33;7.15;;;3.40;;
61741;SDS011;47650;49.848;9.620;2023-09-18T10:04:05;5.97;;;2.60;;
61741;SDS011;47650;49.848;9.620;2023-09-18T10:06:34;5.78;;;2.20;;
61741;SDS011;47650;49.848;9.620;2023-09-18T10:09:03;7.10;;;3.13;;
61741;SDS011;47650;49.848;9.620;2023-09-18T10:11:32;5.28;;;2.60;;
61741;SDS011;47650;49.848;9.620;2023-09-18T10:14:17;12.20;;;2.97;;
61741;SDS011;47650;49.848;9.620;2023-09-18T10:16:53;10.77;;;3.13;;
61741;SDS011;47650;49.848;9.620;2023-09-18T10:22:30;7.65;;;3.08;;
61741;SDS011;47650;49.848;9.620;2023-09-18T10:25:13;10.55;;;2.83;;
61741;SDS011;47650;49.848;9.620;2023-09-18T10:27:42;5.13;;;2.42;;
61741;SDS011;47650;49.848;9.620;2023-09-18T10:30:14;7.20;;;2.97;;
61741;SDS011;47650;49.848;9.620;2023-09-18T10:32:43;8.05;;;3.80;;
61741;SDS011;47650;49.848;9.620;2023-09-18T10:35:10;5.57;;;2.80;;
61741;SDS011;47650;49.848;9.620;2023-09-18T10:37:38;9.75;;;3.67;;
61741;SDS011;47650;49.848;9.620;2023-09-18T10:40:05;17.58;;;2.95;;
61741;SDS011;47650;49.848;9.620;2023-09-18T10:42:43;10.27;;;3.13;;
61741;SDS011;47650;49.848;9.620;2023-09-18T10:45:11;6.25;;;3.10;;
61741;SDS011;47650;49.848;9.620;2023-09-18T10:47:44;6.32;;;2.70;;
61741;SDS011;47650;49.848;9.620;2023-09-18T10:50:22;6.47;;;2.60;;
61741;SDS011;47650;49.848;9.620;2023-09-18T10:52:49;8.40;;;3.42;;
61741;SDS011;47650;49.848;9.620;2023-09-18T10:55:14;6.03;;;2.92;;
61741;SDS011;47650;49.848;9.620;2023-09-18T10:57:49;7.00;;;2.85;;
61741;SDS011;47650;49.848;9.620;2023-09-18T11:00:26;7.00;;;3.00;;
61741;SDS011;47650;49.848;9.620;2023-09-18T11:03:08;6.75;;;2.63;;
61741;SDS011;47650;49.848;9.620;2023-09-18T11:05:35;5.65;;;2.13;;
61741;SDS011;47650;49.848;9.620;2023-09-18T11:10:54;8.18;;;2.50;;
61741;SDS011;47650;49.848;9.620;2023-09-18T11:13:37;7.43;;;2.67;;
61741;SDS011;47650;49.848;9.620;2023-09-18T11:19:11;11.57;;;2.35;;
61741;SDS011;47650;49.848;9.620;2023-09-18T11:21:39;6.25;;;2.33;;
61741;SDS011;47650;49.848;9.620;2023-09-18T11:24:09;5.32;;;1.83;;
61741;SDS011;47650;49.848;9.620;2023-09-18T11:26:44;4.75;;;2.58;;
61741;SDS011;47650;49.848;9.620;2023-09-18T11:29:13;5.70;;;2.67;;
61741;SDS011;47650;49.848;9.620;2023-09-18T11:32:04;6.22;;;2.95;;
61741;SDS011;47650;49.848;9.620;2023-09-18T11:34:30;5.10;;;2.20;;
61741;SDS011;47650;49.848;9.620;2023-09-18T11:36:56;7.95;;;2.50;;
61741;SDS011;47650;49.848;9.620;2023-09-18T11:39:40;7.65;;;2.58;;
61741;SDS011;47650;49.848;9.620;2023-09-18T11:44:35;5.55;;;2.10;;
61741;SDS011;47650;49.848;9.620;2023-09-18T11:47:02;6.95;;;2.30;;
61741;SDS011;47650;49.848;9.620;2023-09-18T11:49:29;6.93;;;2.55;;
61741;SDS011;47650;49.848;9.620;2023-09-18T11:51:58;5.25;;;2.50;;
61741;SDS011;47650;49.848;9.620;2023-09-18T11:54:32;4.88;;;2.10;;
61741;SDS011;47650;49.848;9.620;2023-09-18T11:57:03;6.35;;;2.20;;
61741;SDS011;47650;49.848;9.620;2023-09-18T11:59:42;5.97;;;2.10;;
61741;SDS011;47650;49.848;9.620;2023-09-18T12:02:09;5.80;;;1.92;;
61741;SDS011;47650;49.848;9.620;2023-09-18T12:04:35;4.45;;;1.75;;
61741;SDS011;47650;49.848;9.620;2023-09-18T12:07:04;6.65;;;2.30;;
61741;SDS011;47650;49.848;9.620;2023-09-18T12:09:30;6.78;;;2.40;;
61741;SDS011;47650;49.848;9.620;2023-09-18T12:11:57;5.32;;;1.90;;
61741;SDS011;47650;49.848;9.620;2023-09-18T12:14:32;7.20;;;2.00;;
61741;SDS011;47650;49.848;9.620;2023-09-18T12:17:01;3.10;;;1.85;;
61741;SDS011;47650;49.848;9.620;2023-09-18T12:19:32;4.20;;;1.67;;
61741;SDS011;47650;49.848;9.620;2023-09-18T12:22:04;4.80;;;2.30;;
61741;SDS011;47650;49.848;9.620;2023-09-18T12:24:31;5.65;;;2.05;;
61741;SDS011;47650;49.848;9.620;2023-09-18T12:26:58;5.28;;;2.20;;
61741;SDS011;47650;49.848;9.620;2023-09-18T12:29:23;6.28;;;2.00;;
61741;SDS011;47650;49.848;9.620;2023-09-18T12:31:50;4.78;;;1.88;;
61741;SDS011;47650;49.848;9.620;2023-09-18T12:34:18;5.90;;;2.20;;
61741;SDS011;47650;49.848;9.620;2023-09-18T12:36:48;5.53;;;2.20;;
61741;SDS011;47650;49.848;9.620;2023-09-18T12:39:16;7.45;;;2.88;;
61741;SDS011;47650;49.848;9.620;2023-09-18T12:41:42;5.18;;;1.98;;
61741;SDS011;47650;49.848;9.620;2023-09-18T12:44:12;5.32;;;2.33;;
61741;SDS011;47650;49.848;9.620;2023-09-18T12:46:39;5.03;;;1.80;;
61741;SDS011;47650;49.848;9.620;2023-09-18T12:49:15;6.35;;;2.30;;
61741;SDS011;47650;49.848;9.620;2023-09-18T12:57:55;6.15;;;2.58;;
61741;SDS011;47650;49.848;9.620;2023-09-18T13:00:21;7.83;;;2.53;;
61741;SDS011;47650;49.848;9.620;2023-09-18T13:02:48;7.93;;;2.35;;
61741;SDS011;47650;49.848;9.620;2023-09-18T13:05:20;7.60;;;2.92;;
61741;SDS011;47650;49.848;9.620;2023-09-18T13:07:49;5.45;;;2.00;;
61741;SDS011;47650;49.848;9.620;2023-09-18T13:10:17;6.13;;;2.20;;
61741;SDS011;47650;49.848;9.620;2023-09-18T13:12:47;8.20;;;2.40;;
61741;SDS011;47650;49.848;9.620;2023-09-18T13:15:51;5.65;;;2.53;;
61741;SDS011;47650;49.848;9.620;2023-09-18T13:18:13;8.60;;;2.83;;
61741;SDS011;47650;49.848;9.620;2023-09-18T13:20:41;4.70;;;2.25;;
61741;SDS011;47650;49.848;9.620;2023-09-18T13:23:07;5.55;;;2.17;;
61741;SDS011;47650;49.848;9.620;2023-09-18T13:25:35;6.25;;;2.30;;
61741;SDS011;47650;49.848;9.620;2023-09-18T13:28:04;7.43;;;2.78;;
61741;SDS011;47650;49.848;9.620;2023-09-18T13:30:32;6.60;;;1.95;;
61741;SDS011;47650;49.848;9.620;2023-09-18T13:33:13;6.20;;;2.22;;
61741;SDS011;47650;49.848;9.620;2023-09-18T13:35:44;4.88;;;2.15;;
61741;SDS011;47650;49.848;9.620;2023-09-18T13:38:11;4.82;;;1.95;;
61741;SDS011;47650;49.848;9.620;2023-09-18T13:40:37;5.22;;;2.10;;
61741;SDS011;47650;49.848;9.620;2023-09-18T13:43:05;4.72;;;1.98;;
61741;SDS011;47650;49.848;9.620;2023-09-18T13:45:33;4.00;;;1.75;;
61741;SDS011;47650;49.848;9.620;2023-09-18T13:48:03;4.20;;;1.83;;
61741;SDS011;47650;49.848;9.620;2023-09-18T13:50:29;7.22;;;1.90;;
61741;SDS011;47650;49.848;9.620;2023-09-18T13:53:01;5.22;;;2.20;;
61741;SDS011;47650;49.848;9.620;2023-09-18T13:55:32;4.55;;;1.80;;
61741;SDS011;47650;49.848;9.620;2023-09-18T13:58:01;5.30;;;2.03;;
61741;SDS011;47650;49.848;9.620;2023-09-18T14:00:29;3.60;;;1.67;;
61741;SDS011;47650;49.848;9.620;2023-09-18T14:03:00;6.40;;;1.90;;
61741;SDS011;47650;49.848;9.620;2023-09-18T14:05:32;5.57;;;1.65;;
61741;SDS011;47650;49.848;9.620;2023-09-18T14:07:59;4.22;;;1.90;;
61741;SDS011;47650;49.848;9.620;2023-09-18T14:10:27;4.28;;;1.90;;
61741;SDS011;47650;49.848;9.620;2023-09-18T14:12:52;4.85;;;1.85;;
61741;SDS011;47650;49.848;9.620;2023-09-18T14:15:18;5.15;;;1.50;;
61741;SDS011;47650;49.848;9.620;2023-09-18T14:17:45;5.13;;;1.90;;
61741;SDS011;47650;49.848;9.620;2023-09-18T14:20:13;3.08;;;1.73;;
61741;SDS011;47650;49.848;9.620;2023-09-18T14:22:41;6.75;;;1.80;;
61741;SDS011;47650;49.848;9.620;2023-09-18T14:25:06;2.50;;;1.45;;
61741;SDS011;47650;49.848;9.620;2023-09-18T14:27:33;4.07;;;1.67;;
61741;SDS011;47650;49.848;9.620;2023-09-18T14:30:01;8.68;;;2.33;;
61741;SDS011;47650;49.848;9.620;2023-09-18T14:32:31;3.95;;;1.80;;
61741;SDS011;47650;49.848;9.620;2023-09-18T14:34:57;2.13;;;1.30;;
61741;SDS011;47650;49.848;9.620;2023-09-18T14:37:26;3.33;;;1.30;;
61741;SDS011;47650;49.848;9.620;2023-09-18T14:39:51;3.85;;;1.73;;
61741;SDS011;47650;49.848;9.620;2023-09-18T14:42:16;3.63;;;1.70;;
61741;SDS011;47650;49.848;9.620;2023-09-18T14:44:44;6.03;;;1.83;;
61741;SDS011;47650;49.848;9.620;2023-09-18T14:47:11;5.53;;;1.70;;
61741;SDS011;47650;49.848;9.620;2023-09-18T14:49:41;3.60;;;1.55;;
61741;SDS011;47650;49.848;9.620;2023-09-18T14:52:07;3.75;;;1.60;;
61741;SDS011;47650;49.848;9.620;2023-09-18T14:54:34;5.25;;;1.73;;
61741;SDS011;47650;49.848;9.620;2023-09-18T14:57:01;3.78;;;1.60;;
61741;SDS011;47650;49.848;9.620;2023-09-18T14:59:30;6.25;;;2.03;;
61741;SDS011;47650;49.848;9.620;2023-09-18T15:01:56;5.82;;;1.70;;
61741;SDS011;47650;49.848;9.620;2023-09-18T15:04:22;4.88;;;1.95;;
61741;SDS011;47650;49.848;9.620;2023-09-18T15:06:52;6.50;;;1.70;;
61741;SDS011;47650;49.848;9.620;2023-09-18T15:09:19;4.90;;;1.77;;
61741;SDS011;47650;49.848;9.620;2023-09-18T15:11:44;5.38;;;1.58;;